Time;durP1;ratioP1;P1;durP2;ratioP2;P2;SDS_P1;SDS_P2;PMS_P1;PMS_P2;Temp;Humidity;BMP_temperature;BMP_pressure;BME280_temperature;BME280_humidity;BME280_pressure;Samples;Min_cycle;Max_cycle;Signal;HPM_P1;HPM_P2
2021/11/02 00:01:09;;;;;;;11.13;6.80;;;9.60;99.90;;;;;;5052217;28;20505;-73
2021/11/02 00:03:36;;;;;;;9.55;6.65;;;9.60;99.90;;;;;;5051272;28;20041;-67
2021/11/02 00:06:02;;;;;;;12.35;7.60;;;9.60;99.90;;;;;;5051002;28;20060;-68
2021/11/02 00:08:27;;;;;;;9.70;6.72;;;9.60;99.90;;;;;;5052321;28;20060;-69
2021/11/02 00:10:53;;;;;;;10.98;6.78;;;9.60;99.90;;;;;;5050857;28;20028;-68
2021/11/02 00:13:21;;;;;;;11.25;7.50;;;9.60;99.90;;;;;;5051178;28;20068;-67
2021/11/02 00:15:51;;;;;;;10.07;6.60;;;9.60;99.90;;;;;;5051626;28;20036;-68
2021/11/02 00:18:18;;;;;;;8.68;7.03;;;9.60;99.90;;;;;;5051090;28;20041;-68
2021/11/02 00:20:43;;;;;;;7.55;6.50;;;9.60;99.90;;;;;;5051747;28;20099;-68
2021/11/02 00:23:09;;;;;;;14.40;5.95;;;9.60;99.90;;;;;;5050240;28;20565;-72
2021/11/02 00:25:36;;;;;;;8.77;7.25;;;9.70;99.90;;;;;;5051513;28;20447;-69
2021/11/02 00:28:04;;;;;;;13.02;6.65;;;9.70;99.90;;;;;;5049748;28;20053;-68
2021/11/02 00:30:31;;;;;;;9.18;7.00;;;9.60;99.90;;;;;;5050591;28;20322;-68
2021/11/02 00:32:57;;;;;;;9.88;7.47;;;9.70;99.90;;;;;;5051488;28;20025;-68
2021/11/02 00:35:24;;;;;;;9.43;6.90;;;9.60;99.90;;;;;;5051122;28;20063;-68
2021/11/02 00:37:51;;;;;;;9.98;7.75;;;9.70;99.90;;;;;;5051276;28;20036;-68
2021/11/02 00:40:18;;;;;;;9.65;6.47;;;9.60;99.90;;;;;;5049517;28;20055;-68
2021/11/02 00:42:52;;;;;;;8.20;6.55;;;9.70;99.90;;;;;;5051490;28;20427;-69
2021/11/02 00:45:31;;;;;;;8.98;7.15;;;9.70;99.90;;;;;;5049377;28;20425;-67
2021/11/02 00:48:04;;;;;;;7.53;6.72;;;9.70;99.90;;;;;;5051486;28;20044;-67
2021/11/02 00:50:35;;;;;;;9.35;6.38;;;9.60;99.90;;;;;;5049372;28;20033;-68
2021/11/02 00:53:02;;;;;;;13.25;6.60;;;9.60;99.90;;;;;;5051397;28;20021;-68
2021/11/02 00:55:28;;;;;;;15.82;8.05;;;9.60;99.90;;;;;;5050383;28;20033;-67
2021/11/02 00:57:54;;;;;;;9.05;7.03;;;9.60;99.90;;;;;;5049141;28;20025;-68
2021/11/02 01:00:20;;;;;;;9.43;6.35;;;9.60;99.90;;;;;;5049257;28;20382;-68
2021/11/02 01:02:45;;;;;;;7.80;5.68;;;9.60;99.90;;;;;;5051169;28;20033;-68
2021/11/02 01:05:12;;;;;;;8.85;5.80;;;9.70;99.90;;;;;;5051014;28;20033;-68
2021/11/02 01:07:39;;;;;;;13.93;6.15;;;9.70;99.90;;;;;;5051171;28;20055;-68
2021/11/02 01:10:11;;;;;;;10.13;6.18;;;9.70;99.90;;;;;;5051416;28;20032;-68
2021/11/02 01:12:37;;;;;;;10.23;5.13;;;9.80;99.90;;;;;;5050405;28;20082;-68
2021/11/02 01:15:04;;;;;;;8.18;5.60;;;9.70;99.90;;;;;;5050894;28;20029;-68
2021/11/02 01:17:30;;;;;;;9.02;4.93;;;9.70;99.90;;;;;;5050105;28;20045;-69
2021/11/02 01:19:56;;;;;;;9.70;6.22;;;9.80;99.90;;;;;;5051015;28;20119;-67
2021/11/02 01:22:22;;;;;;;10.10;6.28;;;9.80;99.90;;;;;;5050086;28;20461;-67
2021/11/02 01:24:48;;;;;;;8.35;5.72;;;9.70;99.90;;;;;;5049304;28;20041;-67
2021/11/02 01:27:14;;;;;;;8.40;6.10;;;9.60;99.90;;;;;;5050024;28;20112;-72
2021/11/02 01:29:39;;;;;;;6.80;5.40;;;9.60;99.90;;;;;;5050755;28;20203;-67
2021/11/02 01:32:06;;;;;;;7.15;5.63;;;9.60;99.90;;;;;;5050744;28;20351;-66
2021/11/02 01:34:32;;;;;;;8.27;5.70;;;9.60;99.90;;;;;;5050001;28;20036;-67
2021/11/02 01:36:58;;;;;;;7.72;5.78;;;9.70;99.90;;;;;;5049340;28;20390;-68
2021/11/02 01:39:24;;;;;;;9.02;5.93;;;9.50;99.90;;;;;;5050235;28;20029;-68
2021/11/02 01:41:50;;;;;;;10.10;5.63;;;9.60;99.90;;;;;;5050767;28;20469;-68
2021/11/02 01:44:16;;;;;;;10.32;5.03;;;9.70;99.90;;;;;;5050304;28;20383;-68
2021/11/02 01:46:44;;;;;;;8.93;5.43;;;9.80;99.90;;;;;;5049355;28;20040;-68
2021/11/02 01:49:10;;;;;;;8.52;5.38;;;9.70;99.90;;;;;;5050615;28;20033;-68
2021/11/02 01:51:36;;;;;;;10.18;5.57;;;9.70;99.90;;;;;;5050278;28;20029;-68
2021/11/02 01:54:04;;;;;;;11.10;5.78;;;9.80;99.90;;;;;;5050491;28;20036;-68
2021/11/02 01:56:31;;;;;;;14.50;7.10;;;9.80;99.90;;;;;;5048337;28;20079;-68
2021/11/02 01:58:58;;;;;;;7.35;5.53;;;9.90;99.90;;;;;;5049423;28;20448;-67
2021/11/02 02:01:51;;;;;;;8.57;5.63;;;9.80;99.90;;;;;;5049899;28;20082;-68
2021/11/02 02:04:26;;;;;;;7.20;5.93;;;9.80;99.90;;;;;;5048632;28;20095;-68
2021/11/02 02:07:19;;;;;;;6.55;5.65;;;9.70;99.90;;;;;;5050229;28;20036;-67
2021/11/02 02:09:52;;;;;;;9.77;6.60;;;9.80;99.90;;;;;;5052884;28;20021;-67
2021/11/02 02:12:23;;;;;;;9.77;6.50;;;9.90;99.90;;;;;;5053716;28;20017;-68
2021/11/02 02:15:16;;;;;;;11.13;6.97;;;9.90;99.90;;;;;;5054356;28;20025;-68
2021/11/02 02:18:02;;;;;;;12.55;7.45;;;9.90;99.90;;;;;;5051804;28;20033;-67
2021/11/02 02:20:53;;;;;;;12.02;7.35;;;9.90;99.90;;;;;;5033989;28;20022;-68
2021/11/02 02:23:39;;;;;;;14.13;8.70;;;9.80;99.90;;;;;;5036179;28;20429;-67
2021/11/02 02:26:20;;;;;;;12.13;7.47;;;9.80;99.90;;;;;;5045380;28;20037;-67
2021/11/02 02:28:47;;;;;;;10.98;7.40;;;9.90;99.90;;;;;;5034983;28;20054;-66
2021/11/02 02:31:15;;;;;;;13.98;8.10;;;9.80;99.90;;;;;;5033107;28;20116;-67
2021/11/02 02:33:47;;;;;;;12.20;8.75;;;9.70;99.90;;;;;;5034187;28;20091;-67
2021/11/02 02:36:15;;;;;;;10.80;8.15;;;9.70;99.90;;;;;;5033594;28;20017;-67
2021/11/02 02:38:44;;;;;;;13.27;7.85;;;9.70;99.90;;;;;;5032881;28;20032;-67
2021/11/02 02:41:11;;;;;;;17.38;9.02;;;9.60;99.90;;;;;;5033670;28;20025;-67
2021/11/02 02:43:40;;;;;;;10.95;8.23;;;9.70;99.90;;;;;;5031473;28;20030;-67
2021/11/02 02:46:08;;;;;;;13.07;8.63;;;9.70;99.90;;;;;;5031966;28;20033;-67
2021/11/02 02:48:34;;;;;;;10.77;8.57;;;9.60;99.90;;;;;;5031218;28;20034;-68
2021/11/02 02:51:01;;;;;;;17.38;9.43;;;9.60;99.90;;;;;;5033449;28;20040;-67
2021/11/02 02:53:29;;;;;;;13.90;9.32;;;9.60;99.90;;;;;;5032612;28;20103;-67
2021/11/02 02:56:00;;;;;;;11.75;9.05;;;9.60;99.90;;;;;;5032915;28;20060;-67
2021/11/02 02:58:32;;;;;;;13.98;9.65;;;9.50;99.90;;;;;;5032669;28;20025;-68
2021/11/02 03:00:59;;;;;;;15.48;9.85;;;9.60;99.90;;;;;;5031936;28;20125;-67
2021/11/02 03:03:25;;;;;;;15.68;9.70;;;9.50;99.90;;;;;;5032345;28;20028;-67
2021/11/02 03:05:53;;;;;;;11.77;9.38;;;9.50;99.90;;;;;;5032902;28;20037;-67
2021/11/02 03:08:20;;;;;;;15.93;10.23;;;9.60;99.90;;;;;;5031715;28;20100;-67
2021/11/02 03:10:46;;;;;;;13.88;9.80;;;9.70;99.90;;;;;;5033010;28;20056;-67
2021/11/02 03:13:16;;;;;;;14.07;10.25;;;9.60;99.90;;;;;;5033263;28;20036;-67
2021/11/02 03:18:48;;;;;;;10.77;8.97;;;9.50;99.90;;;;;;5032926;28;20065;-67
2021/11/02 03:51:45;;;;;;;16.92;12.40;;;9.20;99.90;;;;;;5034708;28;20128;-68
2021/11/02 03:54:35;;;;;;;17.63;12.00;;;9.20;99.90;;;;;;5034958;28;20120;-68
2021/11/02 03:57:24;;;;;;;17.50;12.35;;;9.10;99.90;;;;;;5036677;28;20033;-67
2021/11/02 04:25:22;;;;;;;19.60;13.15;;;8.90;99.90;;;;;;5031581;28;20134;-67
2021/11/02 04:33:32;;;;;;;18.70;12.77;;;9.00;99.90;;;;;;5031427;28;20025;-67
2021/11/02 05:51:56;;;;;;;12.20;7.93;;;9.20;99.90;;;;;;5053768;28;20439;-67
2021/11/02 05:56:59;;;;;;;14.88;8.27;;;9.10;99.90;;;;;;5053826;28;20423;-68
2021/11/02 06:02:00;;;;;;;10.70;8.45;;;9.10;99.90;;;;;;5053642;28;20035;-67
2021/11/02 06:04:57;;;;;;;11.65;8.77;;;9.20;99.90;;;;;;5053058;28;20059;-67
2021/11/02 06:10:03;;;;;;;16.58;9.07;;;9.20;99.90;;;;;;5053578;28;20024;-67
2021/11/02 06:29:22;;;;;;;12.85;10.13;;;8.80;99.90;;;;;;5053265;28;20102;-67
2021/11/02 06:37:30;;;;;;;16.30;9.02;;;8.90;99.90;;;;;;5053521;28;20064;-68
2021/11/02 07:00:03;;;;;;;16.10;11.23;;;8.90;99.90;;;;;;5052344;28;20055;-68
2021/11/02 07:20:04;;;;;;;17.70;11.10;;;8.60;99.90;;;;;;5048433;28;20029;-71
2021/11/02 08:48:09;;;;;;;10.63;8.02;;;9.70;99.90;;;;;;5051187;28;20399;-70
2021/11/02 08:50:39;;;;;;;18.13;7.97;;;9.70;99.90;;;;;;5049447;28;20040;-70
2021/11/02 08:53:08;;;;;;;13.02;8.60;;;9.60;99.90;;;;;;5050579;28;20021;-70
2021/11/02 08:55:37;;;;;;;10.27;8.27;;;9.50;99.90;;;;;;5048371;28;20390;-69
2021/11/02 08:58:04;;;;;;;11.90;8.85;;;9.50;99.90;;;;;;5050175;28;20033;-69
2021/11/02 09:00:30;;;;;;;11.85;7.97;;;9.50;99.90;;;;;;5049597;28;20379;-69
2021/11/02 09:03:10;;;;;;;16.00;8.85;;;9.60;99.90;;;;;;5051005;28;20084;-69
2021/11/02 09:05:37;;;;;;;17.60;8.68;;;9.50;99.90;;;;;;5050809;28;20032;-69
2021/11/02 09:08:05;;;;;;;14.52;8.10;;;9.60;99.90;;;;;;5049287;28;20021;-70
2021/11/02 09:10:31;;;;;;;12.15;8.40;;;9.70;99.90;;;;;;5050878;28;20060;-69
2021/11/02 09:12:58;;;;;;;15.75;9.05;;;9.80;99.90;;;;;;5048895;28;20054;-69
2021/11/02 09:15:29;;;;;;;15.57;9.13;;;9.80;99.90;;;;;;5050694;28;20029;-68
2021/11/02 09:17:57;;;;;;;11.10;8.18;;;9.90;99.90;;;;;;5049246;28;20470;-69
2021/11/02 09:20:24;;;;;;;11.32;9.23;;;9.90;99.90;;;;;;5054547;28;20036;-69
2021/11/02 09:22:51;;;;;;;13.30;9.55;;;9.80;99.90;;;;;;5052414;28;20037;-68
2021/11/02 09:25:19;;;;;;;14.98;9.13;;;9.70;99.90;;;;;;5054306;28;20041;-68
2021/11/02 09:27:46;;;;;;;12.93;10.45;;;9.50;99.90;;;;;;5052057;28;20056;-69
2021/11/02 09:30:14;;;;;;;13.40;8.85;;;9.60;99.90;;;;;;5054359;28;20111;-69
2021/11/02 09:32:46;;;;;;;13.05;9.15;;;9.60;99.90;;;;;;5053208;28;20033;-69
2021/11/02 09:35:13;;;;;;;16.27;9.77;;;9.70;99.90;;;;;;5053458;28;20036;-69
2021/11/02 09:37:53;;;;;;;12.05;9.27;;;9.80;99.90;;;;;;5053371;28;20033;-69
2021/11/02 09:40:51;;;;;;;12.48;8.60;;;10.30;99.90;;;;;;5047453;28;20021;-69
2021/11/02 09:43:46;;;;;;;9.88;8.55;;;10.80;99.90;;;;;;5040403;28;20022;-69
2021/11/02 09:46:24;;;;;;;9.75;8.75;;;11.50;99.90;;;;;;5034547;28;20125;-69
2021/11/02 09:49:22;;;;;;;9.27;7.25;;;12.00;99.90;;;;;;5045443;28;20035;-70
2021/11/02 09:51:57;;;;;;;7.68;6.10;;;12.50;99.90;;;;;;5054150;28;20025;-70
2021/11/02 09:54:24;;;;;;;12.05;6.72;;;13.00;99.90;;;;;;5051690;28;20056;-70
2021/11/02 09:57:14;;;;;;;9.32;5.47;;;13.40;99.90;;;;;;5032372;28;20073;-70
2021/11/02 10:00:21;;;;;;;6.97;5.65;;;13.60;99.90;;;;;;5035033;28;20021;-69
2021/11/02 10:03:02;;;;;;;8.07;5.78;;;13.60;99.90;;;;;;5052366;28;20021;-70
2021/11/02 10:05:52;;;;;;;10.73;6.65;;;13.60;99.90;;;;;;5054586;28;20033;-69
2021/11/02 10:08:37;;;;;;;9.00;5.90;;;13.50;99.90;;;;;;5053153;28;20036;-68
2021/11/02 10:11:09;;;;;;;12.65;6.18;;;13.90;99.90;;;;;;5052373;28;20044;-69
2021/11/02 10:13:43;;;;;;;7.38;5.22;;;14.20;99.90;;;;;;5053003;28;20036;-70
2021/11/02 10:16:20;;;;;;;6.32;4.25;;;14.50;99.90;;;;;;5052512;28;20108;-69
2021/11/02 10:19:08;;;;;;;7.35;4.55;;;15.20;99.90;;;;;;5052195;28;20036;-70
2021/11/02 10:21:37;;;;;;;7.78;4.20;;;15.60;99.90;;;;;;5052654;28;20493;-70
2021/11/02 10:24:40;;;;;;;5.60;4.28;;;15.70;99.90;;;;;;5051773;28;20028;-70
2021/11/02 10:27:32;;;;;;;6.50;3.50;;;15.40;99.90;;;;;;5053646;28;20477;-69
2021/11/02 10:30:15;;;;;;;6.95;4.22;;;14.10;99.90;;;;;;5053348;28;20040;-71
2021/11/02 10:32:47;;;;;;;4.75;4.20;;;13.60;99.90;;;;;;5053970;28;20087;-70
2021/11/02 10:35:20;;;;;;;6.57;4.18;;;13.50;99.90;;;;;;5053838;28;20455;-69
2021/11/02 10:38:24;;;;;;;7.45;4.32;;;13.10;99.90;;;;;;5054438;28;20025;-71
2021/11/02 10:40:56;;;;;;;6.40;4.15;;;12.70;99.90;;;;;;5053237;28;20470;-71
2021/11/02 10:43:33;;;;;;;12.05;5.57;;;12.60;99.90;;;;;;5052853;28;20045;-69
2021/11/02 10:46:07;;;;;;;6.57;4.47;;;12.60;99.90;;;;;;5053112;28;20029;-70
2021/11/02 10:48:43;;;;;;;6.85;4.40;;;12.80;99.90;;;;;;5053725;28;20382;-70
2021/11/02 10:51:22;;;;;;;6.28;3.90;;;12.70;99.90;;;;;;5052224;28;20029;-70
2021/11/02 10:54:00;;;;;;;7.53;5.88;;;13.10;99.90;;;;;;5048277;28;20028;-73
2021/11/02 10:57:05;;;;;;;5.10;4.18;;;13.30;99.90;;;;;;5053195;28;20028;-70
2021/11/02 10:59:32;;;;;;;4.60;3.03;;;13.70;99.90;;;;;;5052894;28;20041;-69
2021/11/02 11:01:59;;;;;;;10.45;4.18;;;13.50;99.90;;;;;;5052602;28;20025;-69
2021/11/02 11:04:32;;;;;;;5.60;2.60;;;14.10;99.90;;;;;;5050544;28;20040;-69
2021/11/02 11:06:58;;;;;;;5.03;2.20;;;14.40;99.90;;;;;;5051926;28;20036;-70
2021/11/02 11:09:30;;;;;;;6.95;2.42;;;14.60;99.90;;;;;;5050728;28;20055;-70
2021/11/02 11:11:59;;;;;;;6.97;2.33;;;14.30;99.90;;;;;;5050688;28;20021;-68
2021/11/02 11:14:30;;;;;;;12.45;2.38;;;13.90;99.90;;;;;;5051859;28;20045;-70
2021/11/02 11:16:58;;;;;;;4.80;2.92;;;13.70;99.90;;;;;;5050050;28;20454;-68
2021/11/02 11:19:29;;;;;;;9.10;3.13;;;13.50;99.90;;;;;;5050742;28;20040;-68
2021/11/02 11:21:59;;;;;;;5.13;2.88;;;13.40;99.90;;;;;;5051362;28;20025;-68
2021/11/02 11:24:43;;;;;;;3.92;2.40;;;13.30;99.90;;;;;;5051963;28;20379;-68
2021/11/02 11:27:10;;;;;;;14.48;5.57;;;13.20;99.90;;;;;;5051618;28;20125;-64
2021/11/02 11:29:42;;;;;;;28.38;11.65;;;13.40;99.90;;;;;;5051478;28;20408;-65
2021/11/02 11:32:09;;;;;;;11.77;4.00;;;14.00;99.90;;;;;;5049903;28;20402;-74
2021/11/02 11:34:41;;;;;;;6.75;1.90;;;13.50;99.90;;;;;;5049965;28;20029;-67
2021/11/02 11:37:10;;;;;;;2.35;1.10;;;13.40;99.90;;;;;;5037489;28;20029;-69
2021/11/02 11:39:37;;;;;;;6.35;1.15;;;12.80;99.90;;;;;;5032789;28;20045;-70
2021/11/02 11:42:03;;;;;;;9.50;2.35;;;12.30;99.90;;;;;;5030488;28;20036;-70
2021/11/02 11:44:30;;;;;;;4.20;1.40;;;12.00;99.90;;;;;;5037832;28;20505;-70
2021/11/02 11:47:10;;;;;;;7.57;1.83;;;12.10;99.90;;;;;;5031489;28;20469;-71
2021/11/02 11:49:39;;;;;;;3.70;1.90;;;11.80;99.90;;;;;;5031733;28;20474;-70
2021/11/02 11:52:07;;;;;;;11.27;4.15;;;11.60;99.90;;;;;;5031332;28;20041;-69
2021/11/02 11:54:47;;;;;;;9.82;2.30;;;11.50;99.90;;;;;;5030710;28;20084;-72
2021/11/02 11:57:37;;;;;;;4.38;1.95;;;11.40;99.90;;;;;;5030130;28;20087;-69
2021/11/02 12:00:20;;;;;;;3.85;2.03;;;11.20;99.90;;;;;;5030169;28;20029;-70
2021/11/02 12:02:57;;;;;;;7.03;2.47;;;11.20;99.90;;;;;;5031285;28;20091;-69
2021/11/02 12:05:25;;;;;;;5.90;2.00;;;11.10;99.90;;;;;;5030937;28;20048;-69
2021/11/02 12:08:15;;;;;;;11.07;3.03;;;11.10;99.90;;;;;;5031314;28;20416;-69
2021/11/02 12:10:43;;;;;;;5.28;2.15;;;11.00;99.90;;;;;;5031716;28;20073;-69
2021/11/02 12:13:10;;;;;;;6.82;2.47;;;11.00;99.90;;;;;;5031125;28;20532;-71
2021/11/02 12:15:39;;;;;;;3.72;2.63;;;10.90;99.90;;;;;;5031671;28;20029;-69
2021/11/02 12:18:07;;;;;;;5.75;2.50;;;11.00;99.90;;;;;;5029531;28;20115;-70
2021/11/02 12:20:36;;;;;;;13.15;4.70;;;10.80;99.90;;;;;;5031579;28;20128;-69
2021/11/02 12:23:15;;;;;;;6.32;2.83;;;10.80;99.90;;;;;;5029598;28;20486;-70
2021/11/02 12:25:50;;;;;;;8.55;3.67;;;10.80;99.90;;;;;;5031397;28;20128;-69
2021/11/02 12:28:28;;;;;;;8.68;3.60;;;10.80;99.90;;;;;;5031273;28;20132;-69
2021/11/02 12:30:57;;;;;;;5.55;3.53;;;10.70;99.90;;;;;;5028852;28;20045;-71
2021/11/02 12:33:25;;;;;;;6.72;3.53;;;10.60;99.90;;;;;;5029643;28;20167;-69
2021/11/02 12:35:53;;;;;;;9.88;3.58;;;10.50;99.90;;;;;;5034731;28;20029;-74
2021/11/02 12:38:35;;;;;;;5.65;4.15;;;10.40;99.90;;;;;;5034338;28;20025;-70
2021/11/02 12:41:02;;;;;;;9.73;4.95;;;10.50;99.90;;;;;;5054541;28;20061;-69
2021/11/02 12:43:30;;;;;;;7.90;4.28;;;10.40;99.90;;;;;;5037132;28;20479;-69
2021/11/02 12:45:58;;;;;;;8.00;4.82;;;10.50;99.90;;;;;;5047088;28;20028;-68
2021/11/02 12:48:26;;;;;;;7.70;4.50;;;10.40;99.90;;;;;;5050350;28;20029;-70
2021/11/02 12:50:53;;;;;;;8.38;4.65;;;10.50;99.90;;;;;;5045071;28;20026;-74
2021/11/02 12:53:20;;;;;;;7.57;4.90;;;10.40;99.90;;;;;;5049603;28;20060;-70
2021/11/02 12:55:46;;;;;;;6.53;4.85;;;10.40;99.90;;;;;;5050292;28;20025;-69
2021/11/02 12:58:11;;;;;;;5.25;4.40;;;10.40;99.90;;;;;;5048410;28;20029;-69
2021/11/02 13:00:52;;;;;;;9.90;4.43;;;10.30;99.90;;;;;;5049063;28;20524;-70
2021/11/02 13:03:24;;;;;;;6.43;3.70;;;10.40;99.90;;;;;;5048175;28;20112;-70
2021/11/02 13:06:02;;;;;;;5.72;3.70;;;10.20;99.90;;;;;;5039700;28;20029;-70
2021/11/02 13:08:46;;;;;;;6.63;4.07;;;10.20;99.90;;;;;;5049107;28;20071;-69
2021/11/02 13:11:19;;;;;;;5.05;3.00;;;10.20;99.90;;;;;;5028626;28;20029;-71
2021/11/02 13:14:01;;;;;;;7.38;3.58;;;10.20;99.90;;;;;;5030321;28;20482;-70
2021/11/02 13:16:29;;;;;;;4.15;2.92;;;10.20;99.90;;;;;;5030620;28;20029;-70
2021/11/02 13:18:55;;;;;;;3.03;1.90;;;10.30;99.90;;;;;;5030591;28;20021;-69
2021/11/02 13:21:25;;;;;;;4.20;2.40;;;10.20;99.90;;;;;;5045424;28;20031;-71
2021/11/02 13:24:04;;;;;;;5.10;1.52;;;10.30;99.90;;;;;;5050388;28;20029;-75
2021/11/02 13:26:31;;;;;;;3.97;1.48;;;10.20;99.90;;;;;;5048654;28;20041;-70
2021/11/02 13:29:11;;;;;;;3.88;1.00;;;10.10;99.90;;;;;;5042885;28;20045;-72
2021/11/02 13:31:37;;;;;;;3.90;1.60;;;10.00;99.90;;;;;;5048431;28;20040;-71
2021/11/02 13:34:18;;;;;;;3.08;1.15;;;10.00;99.90;;;;;;5048360;28;20029;-71
2021/11/02 13:36:45;;;;;;;3.95;1.45;;;10.00;99.90;;;;;;5049248;28;20119;-70
2021/11/02 13:39:13;;;;;;;4.07;1.45;;;9.90;99.90;;;;;;5047884;28;20464;-70
2021/11/02 13:41:46;;;;;;;4.43;1.60;;;10.00;99.90;;;;;;5041110;28;20021;-70
2021/11/02 13:44:12;;;;;;;2.20;1.35;;;10.00;99.90;;;;;;5049676;28;20040;-70
2021/11/02 13:46:46;;;;;;;5.10;0.90;;;9.80;99.90;;;;;;5050424;28;20040;-71
2021/11/02 13:49:14;;;;;;;2.83;0.93;;;9.80;99.90;;;;;;5045219;28;20108;-70
2021/11/02 13:51:39;;;;;;;5.53;1.17;;;9.90;99.90;;;;;;5029505;28;20116;-71
2021/11/02 13:54:06;;;;;;;3.60;1.38;;;9.80;99.90;;;;;;5028986;28;20109;-69
2021/11/02 13:56:58;;;;;;;2.20;1.10;;;9.90;99.90;;;;;;5029072;28;20451;-70
2021/11/02 13:59:24;;;;;;;3.58;1.45;;;9.90;99.90;;;;;;5029287;28;20080;-70
2021/11/02 14:01:58;;;;;;;2.72;1.33;;;9.90;99.90;;;;;;5029397;28;20029;-69
2021/11/02 14:04:40;;;;;;;2.50;1.45;;;9.80;99.90;;;;;;5044150;28;20032;-69
2021/11/02 14:07:10;;;;;;;1.63;0.90;;;9.80;99.90;;;;;;5050735;28;20029;-71
2021/11/02 14:09:40;;;;;;;3.53;1.17;;;9.90;99.90;;;;;;5046431;28;20139;-71
2021/11/02 14:12:26;;;;;;;2.83;1.00;;;9.90;99.90;;;;;;5033607;28;20421;-71
2021/11/02 14:15:16;;;;;;;5.32;1.70;;;9.90;99.90;;;;;;5033926;28;20034;-71
2021/11/02 14:17:54;;;;;;;3.40;0.95;;;9.80;99.90;;;;;;5031250;28;20034;-70
2021/11/02 14:20:49;;;;;;;4.65;1.17;;;9.80;99.90;;;;;;5033139;28;20064;-71
2021/11/02 14:23:33;;;;;;;2.42;0.98;;;9.80;99.90;;;;;;5031142;28;20040;-70
2021/11/02 14:26:29;;;;;;;1.98;1.23;;;10.00;99.90;;;;;;5031712;28;20467;-72
2021/11/02 14:28:59;;;;;;;2.58;1.45;;;9.90;99.90;;;;;;5033372;28;20060;-71
2021/11/02 14:31:37;;;;;;;2.45;1.30;;;9.90;99.90;;;;;;5032884;28;20048;-71
2021/11/02 14:34:28;;;;;;;5.65;1.05;;;9.90;99.90;;;;;;5031704;28;20045;-70
2021/11/02 14:37:16;;;;;;;5.05;1.10;;;9.80;99.90;;;;;;5032555;28;20029;-70
2021/11/02 14:39:59;;;;;;;4.50;1.50;;;9.70;99.90;;;;;;5033758;28;20120;-70
2021/11/02 14:42:52;;;;;;;2.05;1.15;;;9.70;99.90;;;;;;5032424;28;20021;-70
2021/11/02 14:45:19;;;;;;;3.90;0.98;;;9.80;99.90;;;;;;5031524;28;20076;-70
2021/11/02 14:47:48;;;;;;;1.40;0.70;;;9.90;99.90;;;;;;5033370;28;20094;-71
2021/11/02 14:50:36;;;;;;;1.90;0.93;;;9.90;99.90;;;;;;5032729;28;20467;-70
2021/11/02 14:53:16;;;;;;;4.65;1.73;;;9.80;99.90;;;;;;5031794;28;20105;-69
2021/11/02 14:56:00;;;;;;;4.43;1.10;;;9.80;99.90;;;;;;5031993;28;20443;-69
2021/11/02 14:58:53;;;;;;;2.17;0.40;;;9.90;99.90;;;;;;5033781;28;20395;-69
2021/11/02 15:01:22;;;;;;;1.40;0.57;;;9.90;99.90;;;;;;5030557;28;20144;-70
2021/11/02 15:04:06;;;;;;;0.65;0.35;;;9.80;99.90;;;;;;5034458;28;20075;-70
2021/11/02 15:06:37;;;;;;;1.13;0.52;;;9.80;99.90;;;;;;5034139;28;20057;-69
2021/11/02 15:09:09;;;;;;;1.30;0.38;;;9.80;99.90;;;;;;5032254;28;20477;-70
2021/11/02 15:11:39;;;;;;;0.50;0.20;;;9.70;99.90;;;;;;5033746;28;20036;-70
2021/11/02 15:14:09;;;;;;;10.50;1.25;;;9.70;99.90;;;;;;5033716;28;20026;-70
2021/11/02 15:16:42;;;;;;;1.15;0.50;;;9.60;99.90;;;;;;5039695;28;20025;-71
2021/11/02 15:19:07;;;;;;;0.95;0.30;;;9.60;99.90;;;;;;5044213;28;20124;-70
2021/11/02 15:21:39;;;;;;;1.40;0.65;;;9.50;99.90;;;;;;5051546;28;20120;-69
2021/11/02 15:24:22;;;;;;;1.83;0.70;;;9.60;99.90;;;;;;5049922;28;20108;-70
2021/11/02 15:26:49;;;;;;;0.63;0.45;;;9.40;99.90;;;;;;5050888;28;20049;-70
2021/11/02 15:29:17;;;;;;;0.90;0.38;;;9.50;99.90;;;;;;5050708;28;20057;-70
2021/11/02 15:31:55;;;;;;;1.20;0.60;;;9.50;99.90;;;;;;5042002;28;20455;-70
2021/11/02 15:34:21;;;;;;;2.53;0.93;;;9.40;99.90;;;;;;5034017;28;20033;-71
2021/11/02 15:36:47;;;;;;;1.88;0.80;;;9.50;99.90;;;;;;5047300;28;20490;-71
2021/11/02 15:39:13;;;;;;;3.08;0.55;;;9.40;99.90;;;;;;5045283;28;20475;-71
2021/11/02 15:41:39;;;;;;;0.90;0.63;;;9.50;99.90;;;;;;5043274;28;20113;-71
2021/11/02 15:44:07;;;;;;;1.65;0.85;;;9.40;99.90;;;;;;5049583;28;20461;-70
2021/11/02 15:46:39;;;;;;;1.65;0.95;;;9.50;99.90;;;;;;5050462;28;20041;-70
2021/11/02 15:49:10;;;;;;;3.10;0.73;;;9.40;99.90;;;;;;5051898;28;20024;-71
2021/11/02 15:51:53;;;;;;;1.00;0.60;;;9.40;99.90;;;;;;5050523;28;20036;-70
2021/11/02 15:54:20;;;;;;;1.85;0.88;;;9.40;99.90;;;;;;5049839;28;20029;-70
2021/11/02 15:56:45;;;;;;;1.67;0.80;;;9.30;99.90;;;;;;5052071;28;20053;-70
2021/11/02 15:59:12;;;;;;;1.67;0.60;;;9.30;99.90;;;;;;5052312;28;20064;-70
2021/11/02 16:01:46;;;;;;;1.42;0.85;;;9.40;99.90;;;;;;5050573;28;20021;-69
2021/11/02 16:04:14;;;;;;;2.88;0.70;;;9.30;99.90;;;;;;5051563;28;20546;-70
2021/11/02 16:07:07;;;;;;;2.55;0.60;;;9.30;99.90;;;;;;5051581;28;20037;-70
2021/11/02 16:09:53;;;;;;;1.88;0.50;;;9.30;99.90;;;;;;5050130;28;20033;-69
2021/11/02 16:12:24;;;;;;;1.83;1.00;;;9.40;99.90;;;;;;5049911;28;20033;-69
2021/11/02 16:15:10;;;;;;;2.22;2.03;;;9.30;99.90;;;;;;5051900;28;20323;-70
2021/11/02 16:17:39;;;;;;;1.90;1.08;;;9.30;99.90;;;;;;5051140;28;20060;-70
2021/11/02 16:20:07;;;;;;;6.10;0.73;;;9.40;99.90;;;;;;5051253;28;20075;-71
2021/11/02 16:22:51;;;;;;;0.90;0.70;;;9.30;99.90;;;;;;5051684;28;20413;-70
2021/11/02 16:25:17;;;;;;;2.38;0.95;;;9.30;99.90;;;;;;5049418;28;20037;-70
2021/11/02 16:28:10;;;;;;;1.38;0.85;;;9.20;99.90;;;;;;5049977;28;20084;-70
2021/11/02 16:30:46;;;;;;;1.33;0.90;;;9.20;99.90;;;;;;5050238;28;20024;-71
2021/11/02 16:33:13;;;;;;;2.15;0.68;;;9.20;99.90;;;;;;5049435;28;20029;-72
2021/11/02 16:35:42;;;;;;;2.20;1.02;;;9.30;99.90;;;;;;5050821;28;20036;-71
2021/11/02 16:38:33;;;;;;;2.38;1.05;;;9.20;99.90;;;;;;5049904;28;20021;-72
2021/11/02 16:41:00;;;;;;;5.53;3.95;;;9.20;99.90;;;;;;5049755;28;20025;-71
2021/11/02 16:43:47;;;;;;;4.05;1.70;;;9.10;99.90;;;;;;5048533;28;20036;-70
2021/11/02 16:46:21;;;;;;;1.65;1.23;;;9.20;99.90;;;;;;5049030;28;20036;-71
2021/11/02 16:48:47;;;;;;;2.75;1.65;;;9.30;99.90;;;;;;5051088;28;20029;-71
2021/11/02 16:51:15;;;;;;;1.40;1.05;;;9.20;99.90;;;;;;5048666;28;20078;-70
2021/11/02 16:53:42;;;;;;;1.92;1.10;;;9.20;99.90;;;;;;5050846;28;20068;-70
2021/11/02 16:56:21;;;;;;;1.40;1.00;;;9.30;99.90;;;;;;5048811;28;20028;-70
2021/11/02 16:58:52;;;;;;;1.83;1.30;;;9.30;99.90;;;;;;5049637;28;20040;-70
2021/11/02 17:01:22;;;;;;;1.58;0.93;;;9.20;99.90;;;;;;5050536;28;20025;-70
2021/11/02 17:03:49;;;;;;;2.88;1.08;;;9.30;99.90;;;;;;5050317;28;20442;-71
2021/11/02 17:06:24;;;;;;;2.65;1.48;;;9.30;99.90;;;;;;5050283;28;20033;-69
2021/11/02 17:09:11;;;;;;;1.38;0.80;;;9.40;99.90;;;;;;5050879;28;20062;-70
2021/11/02 17:11:49;;;;;;;3.95;1.42;;;9.40;99.90;;;;;;5049579;28;20048;-70
2021/11/02 17:14:15;;;;;;;2.65;1.27;;;9.30;99.90;;;;;;5049072;28;20025;-71
2021/11/02 17:16:49;;;;;;;2.25;1.00;;;9.30;99.90;;;;;;5050745;28;20022;-70
2021/11/02 17:19:17;;;;;;;5.97;1.70;;;9.30;99.90;;;;;;5049845;28;20025;-70
2021/11/02 17:21:47;;;;;;;3.42;1.80;;;9.20;99.90;;;;;;5049237;28;20399;-72
2021/11/02 17:24:13;;;;;;;4.03;1.60;;;9.30;99.90;;;;;;5048853;28;20570;-70
2021/11/02 17:26:39;;;;;;;4.97;1.73;;;9.20;99.90;;;;;;5050583;28;20132;-72
2021/11/02 17:29:06;;;;;;;3.65;2.13;;;9.20;99.90;;;;;;5048482;28;20044;-74
2021/11/02 17:31:40;;;;;;;3.20;1.50;;;9.20;99.90;;;;;;5050973;28;20108;-70
2021/11/02 17:34:21;;;;;;;6.28;2.60;;;9.20;99.90;;;;;;5048967;28;20036;-76
2021/11/02 17:36:49;;;;;;;5.47;2.03;;;9.30;99.90;;;;;;5049884;28;20119;-71
2021/11/02 17:39:16;;;;;;;3.25;1.80;;;9.20;99.90;;;;;;5049920;28;20422;-71
2021/11/02 17:41:44;;;;;;;4.15;1.95;;;9.20;99.90;;;;;;5053521;28;20069;-71
2021/11/02 17:44:12;;;;;;;2.88;1.90;;;9.30;99.90;;;;;;5053932;28;20028;-71
2021/11/02 17:46:38;;;;;;;3.97;1.60;;;9.30;99.90;;;;;;5054360;28;20041;-71
2021/11/02 17:49:05;;;;;;;5.60;2.17;;;9.40;99.90;;;;;;5053204;28;20090;-70
2021/11/02 17:51:30;;;;;;;3.58;2.05;;;9.40;99.90;;;;;;5053811;28;20039;-71
2021/11/02 17:53:56;;;;;;;11.50;2.92;;;9.40;99.90;;;;;;5052728;28;20119;-70
2021/11/02 17:56:23;;;;;;;2.55;2.22;;;9.40;99.90;;;;;;5053242;28;20042;-70
2021/11/02 17:58:49;;;;;;;4.22;2.20;;;9.40;99.90;;;;;;5052924;28;20120;-71
2021/11/02 18:01:15;;;;;;;3.92;2.67;;;9.40;99.90;;;;;;5052093;28;20029;-71
2021/11/02 18:03:43;;;;;;;3.85;2.40;;;9.40;99.90;;;;;;5053996;28;20120;-70
2021/11/02 18:06:11;;;;;;;4.45;2.50;;;9.40;99.90;;;;;;5052704;28;20056;-70
2021/11/02 18:08:44;;;;;;;5.57;2.92;;;9.50;99.90;;;;;;5053616;28;20155;-70
2021/11/02 18:11:11;;;;;;;4.30;2.78;;;9.30;99.90;;;;;;5053204;28;20041;-71
2021/11/02 18:13:37;;;;;;;6.25;3.35;;;9.30;99.90;;;;;;5054068;28;20032;-71